createdAt,value
2023-02-14T00:01:27.935Z,17.92
2023-02-14T00:03:56.028Z,22.25
2023-02-14T00:06:29.637Z,19.23
2023-02-14T00:08:57.273Z,16.42
2023-02-14T00:11:24.824Z,16.70
2023-02-14T00:14:10.832Z,14.88
2023-02-14T00:16:38.587Z,13.05
2023-02-14T00:19:06.072Z,14.00
2023-02-14T00:21:37.105Z,14.57
2023-02-14T00:24:21.230Z,16.63
2023-02-14T00:26:50.337Z,14.32
2023-02-14T00:29:27.506Z,17.83
2023-02-14T00:31:55.648Z,20.33
2023-02-14T00:34:23.115Z,15.82
2023-02-14T00:36:50.590Z,15.95
2023-02-14T00:39:19.607Z,14.07
2023-02-14T00:41:47.349Z,14.07
2023-02-14T00:44:15.324Z,14.60
2023-02-14T00:46:43.056Z,14.43
2023-02-14T00:49:10.962Z,15.52
2023-02-14T00:51:40.758Z,16.05
2023-02-14T00:54:10.736Z,17.60
2023-02-14T00:56:38.081Z,18.38
2023-02-14T00:59:05.381Z,17.10
2023-02-14T01:01:35.313Z,22.08
2023-02-14T01:04:03.178Z,18.77
2023-02-14T01:06:30.884Z,20.85
2023-02-14T01:08:58.621Z,19.55
2023-02-14T01:11:29.272Z,15.93
2023-02-14T01:13:59.658Z,19.40
2023-02-14T01:16:29.476Z,12.30
2023-02-14T01:18:59.310Z,18.15
2023-02-14T01:21:30.795Z,16.08
2023-02-14T01:24:01.676Z,14.45
2023-02-14T01:26:30.568Z,11.50
2023-02-14T01:28:58.440Z,17.30
2023-02-14T01:31:32.141Z,14.77
2023-02-14T01:34:00.572Z,13.32
2023-02-14T01:36:32.251Z,13.20
2023-02-14T01:39:13.863Z,11.73
2023-02-14T01:41:44.179Z,16.40
2023-02-14T01:44:14.609Z,13.40
2023-02-14T01:46:44.122Z,14.80
2023-02-14T01:49:30.033Z,14.43
2023-02-14T01:52:10.996Z,14.05
2023-02-14T01:54:46.535Z,17.23
2023-02-14T01:57:18.937Z,15.35
2023-02-14T02:00:18.805Z,17.38
2023-02-14T02:02:46.937Z,21.70
2023-02-14T02:05:16.122Z,22.35
2023-02-14T02:07:43.571Z,18.00
2023-02-14T02:10:11.351Z,19.83
2023-02-14T02:12:42.040Z,15.93
2023-02-14T02:15:09.832Z,16.33
2023-02-14T02:18:12.567Z,14.48
2023-02-14T02:23:56.633Z,13.20
2023-02-14T02:27:04.169Z,18.90
2023-02-14T02:29:37.570Z,12.60
2023-02-14T02:32:42.069Z,12.80
2023-02-14T02:35:28.027Z,11.85
2023-02-14T02:38:10.302Z,10.48
2023-02-14T02:41:17.947Z,13.48
2023-02-14T02:44:33.015Z,13.55
2023-02-14T02:47:16.463Z,13.60
2023-02-14T02:50:17.200Z,13.20
2023-02-14T02:53:19.292Z,13.07
2023-02-14T02:56:20.739Z,12.57
2023-02-14T02:59:40.234Z,14.93
2023-02-14T03:02:54.459Z,11.35
2023-02-14T03:05:22.471Z,11.32
2023-02-14T03:07:50.211Z,14.93
2023-02-14T03:10:31.666Z,11.93
2023-02-14T03:13:20.049Z,12.23
2023-02-14T03:16:17.551Z,9.68
2023-02-14T03:19:31.083Z,14.38
2023-02-14T03:22:28.700Z,10.48
2023-02-14T03:25:28.684Z,11.93
2023-02-14T03:28:36.336Z,11.20
2023-02-14T03:31:28.316Z,11.70
2023-02-14T03:34:21.505Z,11.75
2023-02-14T03:37:21.244Z,13.20
2023-02-14T03:40:23.294Z,12.55
2023-02-14T03:43:07.052Z,12.48
2023-02-14T03:45:51.690Z,10.43
2023-02-14T03:48:22.165Z,13.13
2023-02-14T03:50:52.686Z,9.00
2023-02-14T03:53:25.720Z,13.00
2023-02-14T03:56:04.317Z,10.65
2023-02-14T03:58:38.434Z,11.38
2023-02-14T04:01:36.882Z,13.30
2023-02-14T04:04:05.858Z,13.95
2023-02-14T04:06:33.421Z,19.77
2023-02-14T04:09:01.330Z,15.85
2023-02-14T04:11:28.898Z,19.70
2023-02-14T04:13:57.309Z,16.08
2023-02-14T04:16:27.272Z,18.70
2023-02-14T04:19:13.442Z,17.40
2023-02-14T04:21:41.097Z,19.77
2023-02-14T04:24:08.710Z,21.17
2023-02-14T04:26:35.948Z,20.88
2023-02-14T04:29:03.915Z,19.25
2023-02-14T04:31:31.216Z,15.38
2023-02-14T04:33:58.647Z,12.65
2023-02-14T04:36:25.995Z,16.00
2023-02-14T04:38:55.872Z,26.08
2023-02-14T04:41:23.257Z,19.65
2023-02-14T04:43:50.754Z,16.30
2023-02-14T04:46:18.250Z,12.60
2023-02-14T04:48:45.634Z,13.05
2023-02-14T04:51:13.197Z,15.20
2023-02-14T04:53:43.420Z,12.75
2023-02-14T04:56:10.806Z,15.02
2023-02-14T04:58:38.083Z,13.85
2023-02-14T05:01:05.584Z,16.15
2023-02-14T05:03:32.974Z,20.17
2023-02-14T05:06:00.370Z,16.55
2023-02-14T05:08:30.294Z,18.20
2023-02-14T05:10:58.008Z,21.45
2023-02-14T05:13:25.620Z,21.60
2023-02-14T05:15:53.030Z,18.33
2023-02-14T05:18:20.810Z,18.05
2023-02-14T05:20:53.008Z,12.55
2023-02-14T05:25:50.064Z,15.27
2023-02-14T05:28:18.696Z,15.18
2023-02-14T05:30:46.819Z,10.90
2023-02-14T05:33:14.176Z,15.55
2023-02-14T05:35:41.528Z,9.70
2023-02-14T05:38:14.194Z,13.00
2023-02-14T05:40:42.789Z,16.73
2023-02-14T05:43:10.758Z,11.20
2023-02-14T05:45:38.056Z,15.15
2023-02-14T05:48:07.827Z,12.68
2023-02-14T05:50:37.708Z,14.13
2023-02-14T05:53:05.217Z,14.20
2023-02-14T05:55:32.703Z,14.75
2023-02-14T05:58:00.014Z,13.10
2023-02-14T06:00:27.693Z,12.57
2023-02-14T06:02:57.393Z,15.90
2023-02-14T06:05:27.379Z,11.48
2023-02-14T06:07:57.163Z,13.35
2023-02-14T06:10:25.691Z,14.38
2023-02-14T06:12:54.630Z,18.42
2023-02-14T06:15:24.955Z,13.43
2023-02-14T06:17:57.676Z,16.45
2023-02-14T06:20:28.031Z,14.75
2023-02-14T06:22:56.128Z,19.55
2023-02-14T06:25:24.602Z,11.60
2023-02-14T06:27:55.735Z,11.70
2023-02-14T06:30:23.491Z,15.38
2023-02-14T06:32:50.832Z,10.95
2023-02-14T06:35:18.085Z,10.57
2023-02-14T06:37:45.701Z,13.23
2023-02-14T06:40:14.289Z,15.93
2023-02-14T06:42:41.472Z,16.58
2023-02-14T06:45:09.624Z,12.10
2023-02-14T06:47:39.199Z,8.18
2023-02-14T06:50:07.612Z,14.55
2023-02-14T06:53:39.987Z,12.45
2023-02-14T06:56:07.412Z,17.80
2023-02-14T06:58:34.321Z,11.85
2023-02-14T07:01:03.457Z,17.55
2023-02-14T07:03:30.442Z,14.55
2023-02-14T07:05:58.454Z,14.50
2023-02-14T07:08:26.439Z,14.45
2023-02-14T07:10:57.314Z,11.10
2023-02-14T07:13:24.951Z,16.75
2023-02-14T07:15:51.964Z,12.38
2023-02-14T07:18:18.900Z,12.80
2023-02-14T07:20:47.020Z,12.40
2023-02-14T07:23:14.009Z,10.55
2023-02-14T07:25:41.103Z,15.95
2023-02-14T07:28:08.081Z,21.73
2023-02-14T07:30:35.088Z,12.48
2023-02-14T07:33:02.075Z,14.95
2023-02-14T07:35:28.967Z,16.73
2023-02-14T07:37:59.126Z,12.95
2023-02-14T07:40:30.085Z,15.38
2023-02-14T07:42:58.204Z,13.15
2023-02-14T07:45:25.528Z,11.63
2023-02-14T07:47:54.203Z,11.43
2023-02-14T07:50:23.072Z,10.82
2023-02-14T07:52:50.250Z,10.57
2023-02-14T07:55:17.681Z,12.38
2023-02-14T07:57:44.623Z,10.57
2023-02-14T08:00:12.040Z,13.77
2023-02-14T08:02:39.116Z,12.95
2023-02-14T08:05:06.562Z,16.67
2023-02-14T08:07:33.547Z,14.73
2023-02-14T08:10:00.554Z,15.55
2023-02-14T08:12:45.995Z,15.05
2023-02-14T08:15:31.296Z,14.15
2023-02-14T08:17:58.230Z,14.23
2023-02-14T08:20:25.212Z,14.20
2023-02-14T08:22:52.144Z,12.18
2023-02-14T08:25:19.204Z,10.75
2023-02-14T08:27:46.084Z,11.52
2023-02-14T08:30:13.426Z,13.55
2023-02-14T08:32:40.715Z,15.63
2023-02-14T08:35:08.289Z,14.05
2023-02-14T08:37:35.348Z,12.95
2023-02-14T08:40:02.304Z,8.10
2023-02-14T08:42:30.081Z,10.70
2023-02-14T08:44:56.989Z,13.52
2023-02-14T08:47:24.026Z,15.73
2023-02-14T08:49:50.944Z,12.70
2023-02-14T08:52:17.990Z,16.98
2023-02-14T08:54:45.141Z,18.23
2023-02-14T08:57:12.113Z,13.63
2023-02-14T08:59:39.165Z,11.45
2023-02-14T09:02:06.515Z,11.07
2023-02-14T09:04:37.633Z,10.88
2023-02-14T09:07:04.701Z,11.32
2023-02-14T09:09:32.188Z,11.02
2023-02-14T09:11:59.173Z,7.18
2023-02-14T09:14:26.219Z,11.13
2023-02-14T09:16:53.114Z,12.32
2023-02-14T09:19:22.337Z,14.35
2023-02-14T09:21:49.362Z,13.43
2023-02-14T09:24:16.375Z,11.35
2023-02-14T09:26:45.985Z,12.45
2023-02-14T09:29:13.340Z,8.27
2023-02-14T09:31:42.578Z,11.60
2023-02-14T09:34:09.593Z,13.10
2023-02-14T09:36:55.100Z,10.90
2023-02-14T09:39:22.191Z,12.40
2023-02-14T09:42:05.360Z,8.23
2023-02-14T09:44:51.741Z,12.18
2023-02-14T09:47:46.204Z,11.32
2023-02-14T09:50:34.745Z,7.28
2023-02-14T09:53:29.961Z,12.18
2023-02-14T09:56:10.260Z,8.25
2023-02-14T09:59:02.229Z,9.95
2023-02-14T10:01:55.829Z,11.43
2023-02-14T10:04:39.640Z,7.97
2023-02-14T10:07:17.357Z,10.40
2023-02-14T10:10:15.256Z,8.77
2023-02-14T10:12:57.157Z,8.95
2023-02-14T10:15:31.104Z,6.82
2023-02-14T10:18:01.058Z,14.38
2023-02-14T10:20:51.905Z,10.23
2023-02-14T10:23:25.133Z,8.90
2023-02-14T10:26:01.455Z,11.88
2023-02-14T10:28:34.658Z,8.57
2023-02-14T10:31:25.879Z,10.15
2023-02-14T10:33:57.995Z,9.95
2023-02-14T10:36:51.370Z,12.48
2023-02-14T10:39:43.239Z,23.08
2023-02-14T10:42:19.851Z,11.38
2023-02-14T10:45:25.325Z,14.73
2023-02-14T10:48:04.713Z,8.07
2023-02-14T10:50:31.760Z,9.45
2023-02-14T10:53:14.030Z,11.85
2023-02-14T10:55:55.094Z,12.75
2023-02-14T10:58:23.939Z,10.48
2023-02-14T11:01:07.864Z,13.32
2023-02-14T11:03:36.019Z,11.23
2023-02-14T11:06:03.124Z,12.00
2023-02-14T11:08:40.290Z,9.65
2023-02-14T11:11:19.281Z,11.60
2023-02-14T11:13:46.913Z,10.38
2023-02-14T11:16:29.082Z,9.05
2023-02-14T11:19:15.739Z,16.50
2023-02-14T11:21:44.687Z,13.55
2023-02-14T11:24:35.077Z,10.02
2023-02-14T11:27:11.043Z,9.98
2023-02-14T11:29:52.324Z,8.95
2023-02-14T11:32:24.834Z,10.35
2023-02-14T11:34:58.183Z,7.97
2023-02-14T11:37:45.540Z,8.77
2023-02-14T11:40:35.467Z,12.80
2023-02-14T11:43:21.301Z,12.27
2023-02-14T11:45:50.207Z,11.07
2023-02-14T11:48:38.145Z,10.93
2023-02-14T11:51:16.733Z,10.70
2023-02-14T11:53:49.051Z,8.45
2023-02-14T11:58:53.629Z,11.07
2023-02-14T12:01:28.800Z,7.10
2023-02-14T12:03:58.295Z,7.80
2023-02-14T12:06:30.905Z,10.50
2023-02-14T12:09:22.657Z,11.23
2023-02-14T12:11:59.739Z,9.43
2023-02-14T12:14:32.081Z,8.75
2023-02-14T12:17:07.008Z,9.55
2023-02-14T12:19:47.128Z,11.82
2023-02-14T12:22:20.334Z,7.32
2023-02-14T12:25:07.590Z,7.15
2023-02-14T12:27:56.509Z,8.85
2023-02-14T12:30:25.461Z,7.00
2023-02-14T12:32:56.322Z,9.10
2023-02-14T12:35:26.094Z,9.32
2023-02-14T12:38:02.648Z,10.25
2023-02-14T12:40:57.053Z,6.82
2023-02-14T12:43:59.258Z,8.73
2023-02-14T12:46:47.580Z,6.68
2023-02-14T12:49:23.462Z,9.13
2023-02-14T12:52:11.471Z,8.70
2023-02-14T12:55:00.039Z,7.22
2023-02-14T12:57:59.933Z,10.75
2023-02-14T13:00:49.072Z,5.95
2023-02-14T13:03:34.749Z,9.15
2023-02-14T13:06:24.784Z,8.55
2023-02-14T13:09:21.616Z,11.05
2023-02-14T13:11:58.204Z,9.10
2023-02-14T13:14:43.359Z,6.88
2023-02-14T13:17:51.558Z,8.13
2023-02-14T13:20:39.972Z,12.23
2023-02-14T13:23:15.471Z,11.52
2023-02-14T13:25:50.149Z,7.07
2023-02-14T13:28:17.951Z,8.35
2023-02-14T13:30:45.011Z,8.68
2023-02-14T13:33:43.925Z,10.55
2023-02-14T13:36:13.012Z,14.52
2023-02-14T13:38:46.229Z,10.95
2023-02-14T13:41:17.273Z,8.48
2023-02-14T13:44:13.037Z,12.38
2023-02-14T13:46:51.233Z,19.98
2023-02-14T13:49:25.943Z,11.93
2023-02-14T13:51:55.893Z,11.57
2023-02-14T13:54:42.965Z,10.30
2023-02-14T13:57:31.683Z,10.45
2023-02-14T14:00:17.520Z,12.38
2023-02-14T14:02:55.139Z,9.50
2023-02-14T14:05:32.563Z,12.18
2023-02-14T14:08:21.518Z,10.20
2023-02-14T14:10:53.288Z,11.48
2023-02-14T14:13:42.205Z,9.07
2023-02-14T14:16:26.699Z,9.48
2023-02-14T14:19:03.456Z,10.35
2023-02-14T14:21:46.302Z,10.35
2023-02-14T14:24:22.737Z,9.98
2023-02-14T14:27:14.425Z,9.65
2023-02-14T14:30:02.443Z,8.73
2023-02-14T14:32:31.800Z,9.43
2023-02-14T14:35:02.926Z,11.02
2023-02-14T14:37:35.618Z,9.40
2023-02-14T14:40:08.346Z,7.60
2023-02-14T14:42:38.207Z,11.93
2023-02-14T14:45:08.724Z,11.52
2023-02-14T14:47:41.057Z,15.00
2023-02-14T14:52:41.697Z,12.52
2023-02-14T14:55:15.951Z,14.17
2023-02-14T14:57:50.304Z,12.48
2023-02-14T15:00:27.415Z,11.18
2023-02-14T15:03:03.303Z,10.90
2023-02-14T15:05:37.286Z,13.57
2023-02-14T15:08:19.501Z,11.18
2023-02-14T15:11:00.506Z,16.23
2023-02-14T15:13:49.341Z,15.82
2023-02-14T15:16:26.224Z,20.13
2023-02-14T15:19:00.755Z,14.30
2023-02-14T15:21:28.272Z,21.05
2023-02-14T15:23:55.269Z,16.55
2023-02-14T15:26:31.635Z,16.42
2023-02-14T15:29:08.167Z,19.52
2023-02-14T15:31:39.162Z,20.10
2023-02-14T15:34:07.103Z,19.05
2023-02-14T15:36:35.404Z,18.52
2023-02-14T15:39:04.913Z,26.17
2023-02-14T15:41:31.835Z,28.75
2023-02-14T15:43:58.892Z,25.67
2023-02-14T15:46:35.316Z,24.52
2023-02-14T15:49:08.503Z,23.42
2023-02-14T15:51:36.596Z,23.33
2023-02-14T15:54:07.681Z,27.20
2023-02-14T15:56:49.020Z,26.38
2023-02-14T15:59:21.829Z,27.15
2023-02-14T16:02:15.541Z,27.27
2023-02-14T16:04:42.635Z,34.45
2023-02-14T16:07:29.239Z,41.22
2023-02-14T16:10:22.854Z,38.78
2023-02-14T16:13:06.550Z,36.17
2023-02-14T16:15:38.590Z,32.72
2023-02-14T16:18:32.329Z,31.00
2023-02-14T16:21:15.035Z,28.10
2023-02-14T16:23:45.374Z,36.58
2023-02-14T16:26:12.759Z,59.60
2023-02-14T16:28:41.087Z,65.70
2023-02-14T16:31:14.942Z,56.33
2023-02-14T16:33:42.209Z,51.92
2023-02-14T16:36:20.746Z,48.92
2023-02-14T16:38:47.947Z,50.47
2023-02-14T16:41:20.398Z,38.25
2023-02-14T16:43:48.448Z,29.65
2023-02-14T16:46:17.447Z,31.70
2023-02-14T16:48:45.678Z,28.33
2023-02-14T16:51:16.430Z,34.85
2023-02-14T16:53:43.894Z,30.85
2023-02-14T16:56:16.064Z,34.30
2023-02-14T16:58:43.468Z,29.88
2023-02-14T17:01:10.605Z,27.45
2023-02-14T17:03:40.014Z,39.85
2023-02-14T17:06:08.202Z,25.33
2023-02-14T17:08:38.502Z,30.35
2023-02-14T17:11:06.125Z,34.95
2023-02-14T17:13:35.108Z,32.35
2023-02-14T17:16:03.589Z,34.05
2023-02-14T17:18:32.269Z,35.55
2023-02-14T17:21:00.059Z,32.60
2023-02-14T17:23:27.594Z,34.55
2023-02-14T17:25:56.626Z,31.17
2023-02-14T17:28:25.708Z,27.15
2023-02-14T17:30:53.554Z,28.15
2023-02-14T17:33:20.606Z,32.90
2023-02-14T17:35:47.654Z,34.17
2023-02-14T17:38:14.606Z,27.73
2023-02-14T17:40:41.601Z,33.67
2023-02-14T17:43:08.725Z,28.98
2023-02-14T17:45:35.789Z,33.20
2023-02-14T17:48:02.889Z,33.28
2023-02-14T17:50:29.967Z,30.48
2023-02-14T17:52:59.660Z,31.70
2023-02-14T17:55:28.885Z,33.72
2023-02-14T17:57:55.777Z,33.88
2023-02-14T18:00:24.105Z,37.42
2023-02-14T18:02:51.230Z,36.60
2023-02-14T18:05:18.583Z,40.63
2023-02-14T18:07:45.676Z,35.80
2023-02-14T18:10:12.692Z,35.95
2023-02-14T18:12:39.672Z,36.33
2023-02-14T18:15:09.973Z,33.83
2023-02-14T18:17:37.034Z,34.83
2023-02-14T18:20:05.386Z,35.75
2023-02-14T18:22:34.491Z,36.75
2023-02-14T18:25:01.471Z,33.40
2023-02-14T18:27:28.434Z,33.00
2023-02-14T18:29:55.331Z,32.53
2023-02-14T18:32:22.243Z,29.65
2023-02-14T18:34:49.481Z,31.20
2023-02-14T18:37:16.633Z,37.33
2023-02-14T18:39:46.898Z,33.70
2023-02-14T18:42:16.058Z,42.65
2023-02-14T18:44:43.136Z,36.90
2023-02-14T18:47:10.029Z,34.25
2023-02-14T18:49:37.014Z,39.78
2023-02-14T18:52:05.047Z,32.60
2023-02-14T18:54:35.434Z,33.55
2023-02-14T18:57:02.515Z,30.67
2023-02-14T18:59:29.825Z,31.00
2023-02-14T19:01:57.222Z,36.83
2023-02-14T19:04:24.517Z,31.38
2023-02-14T19:06:52.016Z,34.15
2023-02-14T19:09:19.415Z,28.05
2023-02-14T19:11:50.050Z,38.03
2023-02-14T19:14:21.953Z,32.67
2023-02-14T19:16:52.018Z,36.83
2023-02-14T19:19:24.073Z,34.38
2023-02-14T19:21:51.251Z,35.05
2023-02-14T19:24:19.880Z,31.83
2023-02-14T19:26:46.976Z,34.88
2023-02-14T19:29:15.999Z,29.90
2023-02-14T19:31:45.812Z,36.13
2023-02-14T19:34:18.968Z,39.47
2023-02-14T19:36:46.329Z,35.97
2023-02-14T19:39:13.884Z,48.75
2023-02-14T19:41:41.278Z,52.55
2023-02-14T19:44:17.277Z,58.70
2023-02-14T19:46:46.399Z,68.25
2023-02-14T19:49:17.642Z,81.70
2023-02-14T19:51:45.792Z,54.67
2023-02-14T19:54:15.856Z,86.05
2023-02-14T19:56:44.650Z,101.50
2023-02-14T19:59:13.406Z,100.72
2023-02-14T20:01:47.512Z,107.43
2023-02-14T20:04:20.345Z,116.90
2023-02-14T20:06:47.753Z,106.82
2023-02-14T20:09:15.230Z,107.57
2023-02-14T20:11:50.819Z,105.07
2023-02-14T20:14:50.354Z,117.57
2023-02-14T20:17:19.482Z,108.60
2023-02-14T20:19:49.400Z,116.43
2023-02-14T20:22:16.407Z,117.95
2023-02-14T20:24:43.633Z,112.00
2023-02-14T20:27:10.727Z,121.30
2023-02-14T20:29:39.776Z,135.38
2023-02-14T20:32:06.760Z,150.60
2023-02-14T20:34:34.008Z,141.30
2023-02-14T20:37:01.118Z,151.20
2023-02-14T20:39:31.013Z,149.27
2023-02-14T20:41:58.737Z,143.95
2023-02-14T20:44:28.450Z,143.98
2023-02-14T20:46:56.866Z,148.63
2023-02-14T20:49:25.783Z,143.52
2023-02-14T20:51:53.372Z,152.93
2023-02-14T20:54:22.011Z,148.65
2023-02-14T20:56:50.781Z,153.38
2023-02-14T20:59:19.632Z,154.95
2023-02-14T21:01:46.806Z,151.75
2023-02-14T21:04:14.184Z,156.98
2023-02-14T21:06:41.180Z,141.50
2023-02-14T21:09:08.685Z,173.82
2023-02-14T21:11:35.660Z,168.80
2023-02-14T21:14:05.038Z,189.85
2023-02-14T21:16:32.097Z,186.68
2023-02-14T21:19:01.948Z,221.57
2023-02-14T21:21:36.170Z,203.13
2023-02-14T21:24:05.067Z,203.68
2023-02-14T21:26:32.052Z,239.15
2023-02-14T21:28:59.103Z,241.40
2023-02-14T21:31:26.167Z,292.80
2023-02-14T21:33:58.042Z,280.42
2023-02-14T21:36:29.547Z,367.67
2023-02-14T21:38:59.308Z,375.60
2023-02-14T21:41:29.189Z,395.77
2023-02-14T21:43:57.533Z,407.70
2023-02-14T21:46:35.962Z,376.48
2023-02-14T21:49:25.370Z,369.05
2023-02-14T21:51:52.339Z,364.38
2023-02-14T21:54:21.858Z,333.98
2023-02-14T21:56:49.908Z,329.10
2023-02-14T21:59:17.153Z,306.52
2023-02-14T22:01:46.221Z,289.55
2023-02-14T22:04:13.539Z,222.50
2023-02-14T22:06:41.888Z,220.50
2023-02-14T22:09:09.355Z,224.77
2023-02-14T22:11:36.420Z,228.18
2023-02-14T22:14:03.572Z,218.93
2023-02-14T22:16:30.671Z,212.15
2023-02-14T22:18:57.901Z,209.45
2023-02-14T22:21:26.704Z,223.07
2023-02-14T22:23:54.685Z,210.02
2023-02-14T22:26:28.743Z,236.18
2023-02-14T22:28:59.163Z,222.75
2023-02-14T22:31:28.107Z,204.32
2023-02-14T22:33:55.557Z,219.20
2023-02-14T22:36:22.650Z,211.98
2023-02-14T22:38:49.618Z,216.60
2023-02-14T22:41:19.090Z,216.88
2023-02-14T22:43:46.577Z,211.25
2023-02-14T22:46:31.530Z,228.77
2023-02-14T22:48:58.666Z,227.82
2023-02-14T22:51:39.888Z,213.82
2023-02-14T22:54:15.181Z,239.98
2023-02-14T22:56:47.556Z,232.63
2023-02-14T22:59:23.739Z,228.88
2023-02-14T23:01:52.100Z,241.23
2023-02-14T23:04:22.677Z,240.75
2023-02-14T23:06:51.248Z,241.90
2023-02-14T23:09:18.791Z,251.25
2023-02-14T23:11:46.295Z,248.98
2023-02-14T23:14:33.247Z,235.27
2023-02-14T23:17:23.749Z,243.35
2023-02-14T23:20:08.937Z,234.73
2023-02-14T23:22:38.522Z,242.52
2023-02-14T23:25:11.021Z,248.50
2023-02-14T23:27:41.349Z,245.05
2023-02-14T23:30:11.082Z,253.45
2023-02-14T23:32:38.148Z,243.15
2023-02-14T23:35:05.983Z,239.18
2023-02-14T23:37:33.649Z,258.92
2023-02-14T23:40:00.612Z,244.98
2023-02-14T23:42:28.356Z,249.23
2023-02-14T23:45:15.311Z,261.50
2023-02-14T23:47:42.252Z,257.45
2023-02-14T23:50:09.598Z,256.60
2023-02-14T23:52:42.419Z,248.55
2023-02-14T23:55:09.612Z,244.40
2023-02-14T23:57:37.219Z,249.65
